Time;durP1;ratioP1;P1;durP2;ratioP2;P2;SDS_P1;SDS_P2;PMS_P1;PMS_P2;Temp;Humidity;BMP_temperature;BMP_pressure;BME280_temperature;BME280_humidity;BME280_pressure;Samples;Min_cycle;Max_cycle;Signal;HPM_P1;HPM_P2
2023/11/30 00:00:19;;;;;;;;;;;;;;;;;;4893622;29;20058;-73
2023/11/30 00:02:45;;;;;;;;;;;;;;;;;;4912058;29;30020;-73
2023/11/30 00:05:10;;;;;;;;;;;;;;;;;;4914530;29;19933;-73
2023/11/30 00:07:35;;;;;;;;;;;;;;;;;;4911671;29;19919;-73
2023/11/30 00:10:01;;;;;;;;;;;;;;;;;;4914009;29;19930;-74
2023/11/30 00:12:26;;;;;;;;;;;;;;;;;;4923074;28;20442;-72
2023/11/30 00:14:51;;;;;;;;;;;;;;;;;;4923283;28;20185;-73
2023/11/30 00:17:16;;;;;;;;;;;;;;;;;;4924677;28;20665;-73
2023/11/30 00:19:42;;;;;;;;;;;;;;;;;;4908617;29;20009;-73
2023/11/30 00:22:07;;;;;;;;;;;;;;;;;;4912613;29;20103;-72
2023/11/30 00:24:32;;;;;;;;;;;;;;;;;;4923580;28;19997;-72
2023/11/30 00:26:58;;;;;;;;;;;;;;;;;;4924883;28;20414;-72
2023/11/30 00:29:25;;;;;;;;;;;;;;;;;;4911371;29;20364;-72
2023/11/30 00:31:51;;;;;;;;;;;;;;;;;;4911716;29;19986;-71
2023/11/30 00:34:16;;;;;;;;;;;;;;;;;;4928199;28;20342;-71
2023/11/30 00:36:41;;;;;;;;;;;;;;;;;;4912283;29;21528;-71
2023/11/30 00:39:09;;;;;;;;;;;;;;;;;;4911076;29;19983;-71
2023/11/30 00:41:34;;;;;;;;;;;;;;;;;;4909637;28;19962;-72
2023/11/30 00:43:59;;;;;;;;;;;;;;;;;;4914856;29;20027;-71
2023/11/30 00:46:25;;;;;;;;;;;;;;;;;;4906395;29;20061;-71
2023/11/30 00:48:50;;;;;;;;;;;;;;;;;;4910012;29;19986;-70
2023/11/30 00:51:15;;;;;;;;;;;;;;;;;;4913290;29;19923;-71
2023/11/30 00:53:41;;;;;;;;;;;;;;;;;;4928178;28;20418;-72
2023/11/30 00:56:06;;;;;;;;;;;;;;;;;;4911587;29;20026;-71
2023/11/30 00:58:32;;;;;;;;;;;;;;;;;;4922734;28;20014;-71
2023/11/30 01:00:58;;;;;;;;;;;;;;;;;;4910346;29;20696;-72
2023/11/30 01:03:23;;;;;;;;;;;;;;;;;;4911836;29;20426;-72
2023/11/30 01:05:52;;;;;;;;;;;;;;;;;;4927115;28;20017;-72
2023/11/30 01:08:18;;;;;;;;;;;;;;;;;;4925532;28;19962;-72
2023/11/30 01:10:44;;;;;;;;;;;;;;;;;;4913398;29;20453;-72
2023/11/30 01:13:09;;;;;;;;;;;;;;;;;;4912127;29;19919;-72
2023/11/30 01:15:34;;;;;;;;;;;;;;;;;;4925266;28;19922;-73
2023/11/30 01:18:03;;;;;;;;;;;;;;;;;;4927273;28;19926;-73
2023/11/30 01:20:29;;;;;;;;;;;;;;;;;;4911231;29;20290;-73
2023/11/30 01:22:56;;;;;;;;;;;;;;;;;;4925288;28;19927;-73
2023/11/30 01:25:21;;;;;;;;;;;;;;;;;;4927334;28;19990;-73
2023/11/30 01:27:51;;;;;;;;;;;;;;;;;;4926413;28;19946;-73
2023/11/30 01:30:17;;;;;;;;;;;;;;;;;;4911486;29;19981;-73
2023/11/30 01:32:42;;;;;;;;;;;;;;;;;;4927855;28;20924;-74
2023/11/30 01:35:07;;;;;;;;;;;;;;;;;;4922961;28;19934;-74
2023/11/30 01:37:32;;;;;;;;;;;;;;;;;;4924308;28;19923;-74
2023/11/30 01:40:03;;;;;;;;;;;;;;;;;;4905303;29;20523;-74
2023/11/30 01:42:28;;;;;;;;;;;;;;;;;;4904683;29;20315;-75
2023/11/30 01:44:53;;;;;;;;;;;;;;;;;;4916317;28;19954;-74
2023/11/30 01:47:19;;;;;;;;;;;;;;;;;;4907055;29;20631;-74
2023/11/30 01:49:44;;;;;;;;;;;;;;;;;;4919659;28;19919;-75
2023/11/30 01:52:09;;;;;;;;;;;;;;;;;;4892431;29;19919;-74
2023/11/30 01:54:34;;;;;;;;;;;;;;;;;;4917732;28;20010;-74
2023/11/30 01:57:00;;;;;;;;;;;;;;;;;;4906233;29;20006;-74
2023/11/30 01:59:25;;;;;;;;;;;;;;;;;;4911575;29;19950;-74
2023/11/30 02:01:50;;;;;;;;;;;;;;;;;;4921734;28;20142;-74
2023/11/30 02:04:16;;;;;;;;;;;;;;;;;;4908903;29;20508;-74
2023/11/30 02:06:41;;;;;;;;;;;;;;;;;;4909412;29;19993;-73
2023/11/30 02:09:11;;;;;;;;;;;;;;;;;;4909275;29;19942;-74
2023/11/30 02:11:37;;;;;;;;;;;;;;;;;;4912179;29;19927;-73
2023/11/30 02:14:05;;;;;;;;;;;;;;;;;;4914024;29;19991;-75
2023/11/30 02:16:34;;;;;;;;;;;;;;;;;;4926225;28;19923;-73
2023/11/30 02:18:59;;;;;;;;;;;;;;;;;;4923929;28;19945;-73
2023/11/30 02:21:24;;;;;;;;;;;;;;;;;;4913737;29;19942;-74
2023/11/30 02:23:49;;;;;;;;;;;;;;;;;;4926705;28;19978;-74
2023/11/30 02:26:15;;;;;;;;;;;;;;;;;;4925941;28;21249;-74
2023/11/30 02:28:43;;;;;;;;;;;;;;;;;;4909678;29;19923;-74
2023/11/30 02:31:08;;;;;;;;;;;;;;;;;;4910175;28;19930;-74
2023/11/30 02:33:34;;;;;;;;;;;;;;;;;;4910731;29;19918;-73
2023/11/30 02:35:59;;;;;;;;;;;;;;;;;;4925313;28;20013;-74
2023/11/30 02:38:24;;;;;;;;;;;;;;;;;;4910702;29;19919;-73
2023/11/30 02:40:50;;;;;;;;;;;;;;;;;;4922060;28;20458;-73
2023/11/30 02:43:15;;;;;;;;;;;;;;;;;;4925761;28;19934;-73
2023/11/30 02:45:40;;;;;;;;;;;;;;;;;;4923661;28;20044;-73
2023/11/30 02:48:06;;;;;;;;;;;;;;;;;;4910814;29;19927;-74
2023/11/30 02:50:31;;;;;;;;;;;;;;;;;;4924770;28;20280;-74
2023/11/30 02:52:56;;;;;;;;;;;;;;;;;;4908665;29;20001;-74
2023/11/30 02:55:22;;;;;;;;;;;;;;;;;;4921211;28;20123;-74
2023/11/30 02:57:48;;;;;;;;;;;;;;;;;;4925094;28;19923;-74
2023/11/30 03:00:13;;;;;;;;;;;;;;;;;;4911990;29;19922;-73
2023/11/30 03:02:39;;;;;;;;;;;;;;;;;;4926055;28;19930;-74
2023/11/30 03:05:04;;;;;;;;;;;;;;;;;;4904594;29;20419;-75
2023/11/30 03:10:46;;;;;;;;;;;;;;;;;;4910283;29;19981;-76
2023/11/30 03:13:11;;;;;;;;;;;;;;;;;;4924705;28;20700;-74
2023/11/30 03:15:36;;;;;;;;;;;;;;;;;;4926579;28;20378;-75
2023/11/30 03:18:01;;;;;;;;;;;;;;;;;;4909310;29;19926;-74
2023/11/30 03:20:27;;;;;;;;;;;;;;;;;;4910667;29;20479;-75
2023/11/30 03:22:52;;;;;;;;;;;;;;;;;;4910860;29;19927;-74
2023/11/30 03:25:17;;;;;;;;;;;;;;;;;;4905444;29;19923;-75
2023/11/30 03:27:43;;;;;;;;;;;;;;;;;;4906714;29;19973;-74
2023/11/30 03:30:08;;;;;;;;;;;;;;;;;;4926644;28;20035;-74
2023/11/30 03:32:33;;;;;;;;;;;;;;;;;;4911836;29;20070;-74
2023/11/30 03:34:59;;;;;;;;;;;;;;;;;;4926075;28;19931;-73
2023/11/30 03:37:24;;;;;;;;;;;;;;;;;;4906990;29;19933;-74
2023/11/30 03:39:52;;;;;;;;;;;;;;;;;;4907788;29;19923;-74
2023/11/30 03:42:17;;;;;;;;;;;;;;;;;;4908717;29;19945;-74
2023/11/30 03:44:42;;;;;;;;;;;;;;;;;;4924464;28;20290;-73
2023/11/30 03:47:08;;;;;;;;;;;;;;;;;;4909854;29;19922;-73
2023/11/30 03:49:33;;;;;;;;;;;;;;;;;;4910890;29;20533;-73
2023/11/30 03:51:58;;;;;;;;;;;;;;;;;;4906647;29;19918;-72
2023/11/30 03:54:24;;;;;;;;;;;;;;;;;;4924551;28;20050;-71
2023/11/30 03:56:49;;;;;;;;;;;;;;;;;;4907467;29;21370;-71
2023/11/30 03:59:14;;;;;;;;;;;;;;;;;;4910654;29;20129;-71
2023/11/30 04:01:40;;;;;;;;;;;;;;;;;;4911102;29;19935;-71
2023/11/30 04:04:05;;;;;;;;;;;;;;;;;;4917226;28;20911;-71
2023/11/30 04:06:31;;;;;;;;;;;;;;;;;;4911494;29;19919;-70
2023/11/30 04:08:56;;;;;;;;;;;;;;;;;;4910926;29;19923;-70
2023/11/30 04:11:22;;;;;;;;;;;;;;;;;;4920956;28;20454;-69
2023/11/30 04:13:47;;;;;;;;;;;;;;;;;;4910003;29;19931;-70
2023/11/30 04:16:13;;;;;;;;;;;;;;;;;;4910264;29;19931;-69
2023/11/30 04:18:38;;;;;;;;;;;;;;;;;;4925130;28;19965;-69
2023/11/30 04:21:07;;;;;;;;;;;;;;;;;;4929570;28;20313;-69
2023/11/30 04:23:32;;;;;;;;;;;;;;;;;;4928402;28;20026;-69
2023/11/30 04:25:57;;;;;;;;;;;;;;;;;;4928236;28;21464;-68
2023/11/30 04:28:22;;;;;;;;;;;;;;;;;;4916631;29;19923;-69
2023/11/30 04:30:48;;;;;;;;;;;;;;;;;;4927825;28;19919;-67
2023/11/30 04:33:13;;;;;;;;;;;;;;;;;;4929237;28;19942;-68
2023/11/30 04:35:39;;;;;;;;;;;;;;;;;;4928567;28;19933;-69
2023/11/30 04:38:04;;;;;;;;;;;;;;;;;;4911018;29;19981;-68
2023/11/30 04:40:30;;;;;;;;;;;;;;;;;;4926156;28;19934;-67
2023/11/30 04:42:57;;;;;;;;;;;;;;;;;;4914104;29;20894;-66
2023/11/30 04:45:23;;;;;;;;;;;;;;;;;;4913473;29;19923;-67
2023/11/30 04:47:48;;;;;;;;;;;;;;;;;;4915169;29;19974;-67
2023/11/30 04:53:32;;;;;;;;;;;;;;;;;;4910373;29;19997;-66
2023/11/30 04:55:58;;;;;;;;;;;;;;;;;;4911688;29;19926;-66
2023/11/30 04:58:26;;;;;;;;;;;;;;;;;;4923099;28;19953;-67
2023/11/30 05:00:56;;;;;;;;;;;;;;;;;;4927480;28;20245;-67
2023/11/30 05:03:24;;;;;;;;;;;;;;;;;;4911542;29;19922;-66
2023/11/30 05:05:51;;;;;;;;;;;;;;;;;;4911580;29;20308;-67
2023/11/30 05:08:19;;;;;;;;;;;;;;;;;;4912076;29;21808;-65
2023/11/30 05:10:45;;;;;;;;;;;;;;;;;;4926379;28;19926;-66
2023/11/30 05:13:13;;;;;;;;;;;;;;;;;;4916230;29;20007;-66
2023/11/30 05:15:41;;;;;;;;;;;;;;;;;;4928755;28;20578;-67
2023/11/30 05:18:12;;;;;;;;;;;;;;;;;;4911625;29;19958;-66
2023/11/30 05:20:37;;;;;;;;;;;;;;;;;;4915564;29;19923;-67
2023/11/30 05:23:05;;;;;;;;;;;;;;;;;;4928863;28;20295;-66
2023/11/30 05:25:30;;;;;;;;;;;;;;;;;;4913140;29;21538;-67
2023/11/30 05:27:56;;;;;;;;;;;;;;;;;;4927545;28;19985;-65
2023/11/30 05:30:21;;;;;;;;;;;;;;;;;;4911215;29;20446;-66
2023/11/30 05:32:46;;;;;;;;;;;;;;;;;;4912792;29;19927;-67
2023/11/30 05:35:14;;;;;;;;;;;;;;;;;;4911689;29;20001;-67
2023/11/30 05:37:39;;;;;;;;;;;;;;;;;;4928321;28;19923;-68
2023/11/30 05:40:05;;;;;;;;;;;;;;;;;;4911949;29;19930;-67
2023/11/30 05:42:31;;;;;;;;;;;;;;;;;;4925640;28;19971;-68
2023/11/30 05:44:59;;;;;;;;;;;;;;;;;;4927134;28;20044;-67
2023/11/30 05:47:27;;;;;;;;;;;;;;;;;;4911979;29;19961;-68
2023/11/30 05:49:54;;;;;;;;;;;;;;;;;;4927554;28;20351;-67
2023/11/30 05:52:20;;;;;;;;;;;;;;;;;;4927510;28;20662;-68
2023/11/30 05:54:45;;;;;;;;;;;;;;;;;;4930060;28;20017;-68
2023/11/30 05:57:13;;;;;;;;;;;;;;;;;;4899504;29;19929;-68
2023/11/30 05:59:41;;;;;;;;;;;;;;;;;;4929281;28;20505;-67
2023/11/30 06:02:08;;;;;;;;;;;;;;;;;;4910961;29;19930;-67
2023/11/30 06:04:33;;;;;;;;;;;;;;;;;;4927811;28;19977;-68
2023/11/30 06:06:58;;;;;;;;;;;;;;;;;;4927723;28;20006;-68
2023/11/30 06:09:26;;;;;;;;;;;;;;;;;;4928403;28;19929;-66
2023/11/30 06:11:52;;;;;;;;;;;;;;;;;;4927492;28;20011;-67
2023/11/30 06:14:17;;;;;;;;;;;;;;;;;;4927378;28;19953;-67
2023/11/30 06:16:45;;;;;;;;;;;;;;;;;;4927514;28;20133;-68
2023/11/30 06:19:10;;;;;;;;;;;;;;;;;;4928381;28;19922;-68
2023/11/30 06:21:38;;;;;;;;;;;;;;;;;;4892933;29;20398;-67
2023/11/30 06:24:03;;;;;;;;;;;;;;;;;;4914383;29;19961;-66
2023/11/30 06:26:28;;;;;;;;;;;;;;;;;;4927880;28;20381;-67
2023/11/30 06:28:54;;;;;;;;;;;;;;;;;;4926450;28;20053;-68
2023/11/30 06:31:22;;;;;;;;;;;;;;;;;;4912871;29;19941;-67
2023/11/30 06:33:48;;;;;;;;;;;;;;;;;;4923178;28;19915;-67
2023/11/30 06:36:13;;;;;;;;;;;;;;;;;;4913052;29;20425;-67
2023/11/30 06:41:26;;;;;;;;;;;;;;;;;;4926628;28;19933;-67
2023/11/30 06:43:51;;;;;;;;;;;;;;;;;;4910573;29;19919;-67
2023/11/30 06:46:19;;;;;;;;;;;;;;;;;;4910061;29;19993;-66
2023/11/30 06:48:52;;;;;;;;;;;;;;;;;;4927872;28;19966;-66
2023/11/30 06:51:22;;;;;;;;;;;;;;;;;;4911403;29;20411;-67
2023/11/30 06:53:50;;;;;;;;;;;;;;;;;;4927091;28;20351;-66
2023/11/30 06:56:15;;;;;;;;;;;;;;;;;;4927261;28;19925;-67
2023/11/30 06:58:41;;;;;;;;;;;;;;;;;;4926001;28;19923;-66
2023/11/30 07:01:09;;;;;;;;;;;;;;;;;;4925897;28;20285;-65
2023/11/30 07:03:35;;;;;;;;;;;;;;;;;;4912267;29;20160;-66
2023/11/30 07:06:00;;;;;;;;;;;;;;;;;;4911171;29;19943;-67
2023/11/30 07:08:25;;;;;;;;;;;;;;;;;;4921828;28;20050;-66
2023/11/30 07:10:53;;;;;;;;;;;;;;;;;;4911897;29;20493;-67
2023/11/30 07:13:19;;;;;;;;;;;;;;;;;;4912937;29;19931;-66
2023/11/30 07:15:44;;;;;;;;;;;;;;;;;;4912317;29;19923;-66
2023/11/30 07:18:09;;;;;;;;;;;;;;;;;;4926220;28;19926;-66
2023/11/30 07:20:37;;;;;;;;;;;;;;;;;;4913606;29;19954;-66
2023/11/30 07:23:05;;;;;;;;;;;;;;;;;;4912176;29;19930;-66
2023/11/30 07:25:30;;;;;;;;;;;;;;;;;;4928584;28;19919;-67
2023/11/30 07:27:59;;;;;;;;;;;;;;;;;;4925927;28;19954;-66
2023/11/30 07:30:27;;;;;;;;;;;;;;;;;;4911862;29;19934;-66
2023/11/30 07:32:55;;;;;;;;;;;;;;;;;;4913605;29;20332;-66
2023/11/30 07:35:20;;;;;;;;;;;;;;;;;;4912010;29;20033;-67
2023/11/30 07:37:46;;;;;;;;;;;;;;;;;;4911747;29;20278;-66
2023/11/30 07:40:11;;;;;;;;;;;;;;;;;;4911958;29;19919;-66
2023/11/30 07:42:39;;;;;;;;;;;;;;;;;;4912164;29;19969;-66
2023/11/30 07:45:09;;;;;;;;;;;;;;;;;;4910681;29;19953;-66
2023/11/30 07:47:34;;;;;;;;;;;;;;;;;;4913964;29;20033;-67
2023/11/30 07:49:59;;;;;;;;;;;;;;;;;;4923763;28;20275;-66
2023/11/30 07:52:24;;;;;;;;;;;;;;;;;;4926556;28;19927;-66
2023/11/30 07:54:52;;;;;;;;;;;;;;;;;;4912146;29;19988;-66
2023/11/30 07:57:18;;;;;;;;;;;;;;;;;;4917026;29;19916;-66
2023/11/30 07:59:55;;;;;;;;;;;;;;;;;;4928916;28;19919;-66
2023/11/30 08:02:21;;;;;;;;;;;;;;;;;;4915420;29;19968;-66
2023/11/30 08:04:49;;;;;;;;;;;;;;;;;;4911741;29;19977;-66
2023/11/30 08:10:33;;;;;;;;;;;;;;;;;;4913376;29;19970;-66
2023/11/30 08:13:01;;;;;;;;;;;;;;;;;;4931337;28;19938;-66
2023/11/30 08:18:43;;;;;;;;;;;;;;;;;;4912561;29;19934;-66
2023/11/30 08:21:11;;;;;;;;;;;;;;;;;;4912170;29;19919;-67
2023/11/30 08:23:38;;;;;;;;;;;;;;;;;;4929859;28;19923;-67
2023/11/30 08:29:21;;;;;;;;;;;;;;;;;;4914930;29;20001;-67
2023/11/30 08:31:47;;;;;;;;;;;;;;;;;;4915610;29;19919;-66
2023/11/30 08:34:15;;;;;;;;;;;;;;;;;;4927892;28;19927;-66
2023/11/30 08:36:40;;;;;;;;;;;;;;;;;;4928600;28;19950;-66
2023/11/30 08:39:08;;;;;;;;;;;;;;;;;;4914578;29;20038;-66
2023/11/30 08:41:33;;;;;;;;;;;;;;;;;;4916984;29;19923;-66
2023/11/30 08:43:59;;;;;;;;;;;;;;;;;;4925898;28;20439;-67
2023/11/30 08:46:24;;;;;;;;;;;;;;;;;;4928551;28;19923;-66
2023/11/30 08:48:49;;;;;;;;;;;;;;;;;;4926922;28;20397;-66
2023/11/30 08:51:15;;;;;;;;;;;;;;;;;;4929517;28;20331;-66
2023/11/30 08:53:40;;;;;;;;;;;;;;;;;;4928073;28;20863;-66
2023/11/30 08:56:08;;;;;;;;;;;;;;;;;;4929166;28;20049;-66
2023/11/30 08:58:39;;;;;;;;;;;;;;;;;;4911775;29;19929;-66
2023/11/30 09:01:07;;;;;;;;;;;;;;;;;;4929141;28;19926;-66
2023/11/30 09:03:32;;;;;;;;;;;;;;;;;;4915601;29;19923;-67
2023/11/30 09:06:00;;;;;;;;;;;;;;;;;;4926724;28;20787;-66
2023/11/30 09:08:26;;;;;;;;;;;;;;;;;;4913166;29;20022;-67
2023/11/30 09:10:51;;;;;;;;;;;;;;;;;;4928516;28;19929;-66
2023/11/30 09:13:19;;;;;;;;;;;;;;;;;;4912110;29;19939;-66
2023/11/30 09:15:44;;;;;;;;;;;;;;;;;;4898028;29;19923;-67
2023/11/30 09:18:12;;;;;;;;;;;;;;;;;;4927528;28;20275;-67
2023/11/30 09:20:39;;;;;;;;;;;;;;;;;;4927973;28;20354;-66
2023/11/30 09:23:05;;;;;;;;;;;;;;;;;;4915111;29;20432;-66
2023/11/30 09:25:32;;;;;;;;;;;;;;;;;;4913931;29;19954;-66
2023/11/30 09:28:00;;;;;;;;;;;;;;;;;;4927072;28;19919;-67
2023/11/30 09:30:26;;;;;;;;;;;;;;;;;;4913151;29;19979;-67
2023/11/30 09:36:11;;;;;;;;;;;;;;;;;;4911615;29;19926;-67
2023/11/30 09:38:36;;;;;;;;;;;;;;;;;;4912527;29;19978;-67
2023/11/30 09:41:04;;;;;;;;;;;;;;;;;;4913133;29;20396;-67
2023/11/30 09:43:31;;;;;;;;;;;;;;;;;;4927508;28;20301;-67
2023/11/30 09:46:00;;;;;;;;;;;;;;;;;;4926278;28;19937;-67
2023/11/30 09:51:48;;;;;;;;;;;;;;;;;;4914285;29;19926;-67
2023/11/30 09:54:16;;;;;;;;;;;;;;;;;;4927460;28;20386;-66
2023/11/30 09:56:41;;;;;;;;;;;;;;;;;;4912593;29;19919;-67
2023/11/30 09:59:06;;;;;;;;;;;;;;;;;;4910861;29;21064;-67
2023/11/30 10:01:32;;;;;;;;;;;;;;;;;;4909060;29;20077;-67
2023/11/30 10:03:57;;;;;;;;;;;;;;;;;;4909737;29;20704;-67
2023/11/30 10:09:18;;;;;;;;;;;;;;;;;;4891479;29;19923;-67
2023/11/30 10:15:03;;;;;;;;;;;;;;;;;;4892551;29;20284;-68
2023/11/30 10:17:28;;;;;;;;;;;;;;;;;;4892446;29;20287;-69
2023/11/30 10:19:59;;;;;;;;;;;;;;;;;;4921919;28;20352;-68
2023/11/30 10:22:25;;;;;;;;;;;;;;;;;;4908813;29;19919;-69
2023/11/30 10:24:51;;;;;;;;;;;;;;;;;;4907921;29;20399;-69
2023/11/30 10:27:16;;;;;;;;;;;;;;;;;;4892950;29;19924;-69
2023/11/30 10:29:41;;;;;;;;;;;;;;;;;;4923283;28;19927;-69
2023/11/30 10:32:07;;;;;;;;;;;;;;;;;;4923637;28;20405;-70
2023/11/30 10:34:32;;;;;;;;;;;;;;;;;;4892763;29;20419;-69
2023/11/30 10:37:01;;;;;;;;;;;;;;;;;;4908006;29;20017;-69
2023/11/30 10:39:26;;;;;;;;;;;;;;;;;;4923340;28;19922;-69
2023/11/30 10:41:52;;;;;;;;;;;;;;;;;;4919023;28;19978;-69
2023/11/30 10:44:17;;;;;;;;;;;;;;;;;;4891751;29;19976;-68
2023/11/30 10:46:42;;;;;;;;;;;;;;;;;;4892360;29;19919;-67
2023/11/30 10:49:09;;;;;;;;;;;;;;;;;;4923869;28;20445;-67
2023/11/30 10:51:34;;;;;;;;;;;;;;;;;;4924204;28;20398;-67
2023/11/30 10:54:01;;;;;;;;;;;;;;;;;;4922641;28;19982;-68
2023/11/30 10:56:30;;;;;;;;;;;;;;;;;;4920517;28;19920;-68
2023/11/30 10:58:58;;;;;;;;;;;;;;;;;;4922398;28;19919;-69
2023/11/30 11:04:30;;;;;;;;;;;;;;;;;;4923984;28;20132;-68
2023/11/30 11:06:55;;;;;;;;;;;;;;;;;;4910976;29;19969;-68
2023/11/30 11:09:23;;;;;;;;;;;;;;;;;;4925245;28;19962;-69
2023/11/30 11:11:50;;;;;;;;;;;;;;;;;;4925764;28;20652;-69
2023/11/30 11:14:15;;;;;;;;;;;;;;;;;;4911122;29;19922;-69
2023/11/30 11:16:41;;;;;;;;;;;;;;;;;;4927125;28;19919;-70
2023/11/30 11:19:06;;;;;;;;;;;;;;;;;;4911916;29;20006;-70
2023/11/30 11:21:34;;;;;;;;;;;;;;;;;;4924574;28;20421;-70
2023/11/30 11:23:59;;;;;;;;;;;;;;;;;;4926286;28;20662;-71
2023/11/30 11:26:24;;;;;;;;;;;;;;;;;;4910276;29;19923;-70
2023/11/30 11:28:53;;;;;;;;;;;;;;;;;;4925743;28;19919;-70
2023/11/30 11:31:18;;;;;;;;;;;;;;;;;;4929271;28;19923;-71
2023/11/30 11:33:44;;;;;;;;;;;;;;;;;;4914304;29;19919;-72
2023/11/30 11:36:09;;;;;;;;;;;;;;;;;;4914976;29;20009;-70
2023/11/30 11:38:35;;;;;;;;;;;;;;;;;;4915952;29;19926;-70
2023/11/30 11:41:00;;;;;;;;;;;;;;;;;;4915437;29;19976;-70
2023/11/30 11:43:25;;;;;;;;;;;;;;;;;;4930076;28;20387;-70
2023/11/30 11:45:51;;;;;;;;;;;;;;;;;;4914701;29;19923;-70
2023/11/30 11:48:17;;;;;;;;;;;;;;;;;;4929074;28;20455;-71
2023/11/30 11:50:42;;;;;;;;;;;;;;;;;;4913955;29;19935;-71
2023/11/30 11:53:07;;;;;;;;;;;;;;;;;;4930711;28;19919;-71
2023/11/30 11:55:33;;;;;;;;;;;;;;;;;;4913744;29;20272;-70
2023/11/30 11:57:58;;;;;;;;;;;;;;;;;;4916117;29;20413;-70
2023/11/30 12:00:25;;;;;;;;;;;;;;;;;;4929802;28;19923;-71
2023/11/30 12:02:51;;;;;;;;;;;;;;;;;;4929619;28;19976;-71
2023/11/30 12:05:16;;;;;;;;;;;;;;;;;;4916135;29;20422;-70
2023/11/30 12:07:42;;;;;;;;;;;;;;;;;;4912292;29;19922;-71
2023/11/30 12:10:07;;;;;;;;;;;;;;;;;;4931155;28;19918;-72
2023/11/30 12:12:32;;;;;;;;;;;;;;;;;;4927784;28;20390;-72
2023/11/30 12:14:58;;;;;;;;;;;;;;;;;;4928697;28;19978;-70
2023/11/30 12:17:23;;;;;;;;;;;;;;;;;;4913742;29;19940;-72
2023/11/30 12:19:49;;;;;;;;;;;;;;;;;;4912123;29;20074;-71
2023/11/30 12:22:14;;;;;;;;;;;;;;;;;;4913814;29;20366;-71
2023/11/30 12:24:39;;;;;;;;;;;;;;;;;;4928459;28;19919;-71
2023/11/30 12:27:05;;;;;;;;;;;;;;;;;;4930119;28;19966;-72
2023/11/30 12:29:30;;;;;;;;;;;;;;;;;;4914180;29;20422;-72
2023/11/30 12:31:58;;;;;;;;;;;;;;;;;;4914939;29;19923;-72
2023/11/30 12:34:23;;;;;;;;;;;;;;;;;;4915540;29;19934;-72
2023/11/30 12:36:49;;;;;;;;;;;;;;;;;;4928450;28;19919;-72
2023/11/30 12:39:15;;;;;;;;;;;;;;;;;;4929312;28;19926;-72
2023/11/30 12:41:41;;;;;;;;;;;;;;;;;;4928936;28;19923;-72
2023/11/30 12:46:50;;;;;;;;;;;;;;;;;;4928357;28;20611;-73
2023/11/30 12:49:15;;;;;;;;;;;;;;;;;;4927312;28;19918;-73
2023/11/30 12:51:41;;;;;;;;;;;;;;;;;;4928264;28;20347;-73
2023/11/30 12:54:07;;;;;;;;;;;;;;;;;;4929370;28;20397;-73
2023/11/30 12:56:32;;;;;;;;;;;;;;;;;;4912755;29;19919;-73
2023/11/30 12:58:58;;;;;;;;;;;;;;;;;;4927540;28;19919;-72
2023/11/30 13:01:24;;;;;;;;;;;;;;;;;;4927970;28;19967;-74
2023/11/30 13:03:49;;;;;;;;;;;;;;;;;;4925515;28;19924;-73
2023/11/30 13:06:14;;;;;;;;;;;;;;;;;;4895109;29;20298;-73
2023/11/30 13:08:40;;;;;;;;;;;;;;;;;;4924954;28;19926;-73
2023/11/30 13:11:05;;;;;;;;;;;;;;;;;;4895240;29;19995;-73
2023/11/30 13:13:31;;;;;;;;;;;;;;;;;;4894451;29;20313;-74
2023/11/30 13:16:00;;;;;;;;;;;;;;;;;;4925730;28;19923;-74
2023/11/30 13:18:26;;;;;;;;;;;;;;;;;;4924831;28;19931;-74
2023/11/30 13:20:51;;;;;;;;;;;;;;;;;;4893706;29;19930;-72
2023/11/30 13:23:17;;;;;;;;;;;;;;;;;;4925302;28;19931;-71
2023/11/30 13:25:42;;;;;;;;;;;;;;;;;;4925595;28;19919;-73
2023/11/30 13:28:07;;;;;;;;;;;;;;;;;;4924687;28;19954;-76
2023/11/30 13:30:33;;;;;;;;;;;;;;;;;;4894763;29;20767;-74
2023/11/30 13:32:58;;;;;;;;;;;;;;;;;;4908433;29;19998;-74
2023/11/30 13:35:24;;;;;;;;;;;;;;;;;;4894620;29;20400;-74
2023/11/30 13:37:49;;;;;;;;;;;;;;;;;;4909895;29;20450;-74
2023/11/30 13:40:14;;;;;;;;;;;;;;;;;;4892586;29;20221;-74
2023/11/30 13:42:43;;;;;;;;;;;;;;;;;;4892880;29;19927;-74
2023/11/30 13:45:08;;;;;;;;;;;;;;;;;;4894120;29;21838;-75
2023/11/30 13:47:33;;;;;;;;;;;;;;;;;;4922916;28;19923;-75
2023/11/30 13:49:59;;;;;;;;;;;;;;;;;;4894054;29;20340;-76
2023/11/30 13:52:25;;;;;;;;;;;;;;;;;;4923674;28;20264;-75
2023/11/30 13:54:50;;;;;;;;;;;;;;;;;;4926760;28;20325;-74
2023/11/30 13:57:15;;;;;;;;;;;;;;;;;;4925752;28;19919;-75
2023/11/30 13:59:41;;;;;;;;;;;;;;;;;;4924832;28;19922;-76
2023/11/30 14:02:06;;;;;;;;;;;;;;;;;;4925723;28;19943;-75
2023/11/30 14:04:33;;;;;;;;;;;;;;;;;;4921292;28;19986;-76
2023/11/30 14:06:58;;;;;;;;;;;;;;;;;;4891265;29;20018;-76
2023/11/30 14:09:26;;;;;;;;;;;;;;;;;;4921943;28;20326;-75
2023/11/30 14:11:51;;;;;;;;;;;;;;;;;;4924232;28;19919;-75
2023/11/30 14:14:17;;;;;;;;;;;;;;;;;;4922933;28;19955;-76
2023/11/30 14:16:42;;;;;;;;;;;;;;;;;;4925160;28;20029;-75
2023/11/30 14:19:07;;;;;;;;;;;;;;;;;;4927425;28;19962;-75
2023/11/30 14:21:32;;;;;;;;;;;;;;;;;;4925656;28;20167;-75
2023/11/30 14:23:58;;;;;;;;;;;;;;;;;;4920899;28;20363;-75
2023/11/30 14:26:25;;;;;;;;;;;;;;;;;;4924405;28;19915;-74
2023/11/30 14:28:50;;;;;;;;;;;;;;;;;;4920704;28;20218;-74
2023/11/30 14:31:16;;;;;;;;;;;;;;;;;;4893733;29;19954;-74
2023/11/30 14:33:43;;;;;;;;;;;;;;;;;;4926159;28;20033;-75
2023/11/30 14:36:08;;;;;;;;;;;;;;;;;;4925545;28;19923;-74
2023/11/30 14:38:34;;;;;;;;;;;;;;;;;;4896158;29;19950;-74
2023/11/30 14:40:59;;;;;;;;;;;;;;;;;;4924982;28;19919;-74
2023/11/30 14:43:24;;;;;;;;;;;;;;;;;;4920603;28;20249;-74
2023/11/30 14:45:50;;;;;;;;;;;;;;;;;;4908005;29;19978;-74
2023/11/30 14:48:16;;;;;;;;;;;;;;;;;;4894225;29;19927;-75
2023/11/30 14:50:42;;;;;;;;;;;;;;;;;;4921465;28;19930;-75
2023/11/30 14:53:07;;;;;;;;;;;;;;;;;;4906716;29;19923;-75
2023/11/30 14:55:32;;;;;;;;;;;;;;;;;;4923760;28;19919;-76
2023/11/30 14:57:58;;;;;;;;;;;;;;;;;;4891336;29;19919;-75
2023/11/30 15:00:24;;;;;;;;;;;;;;;;;;4921892;28;19934;-75
2023/11/30 15:02:51;;;;;;;;;;;;;;;;;;4923096;28;20057;-75
2023/11/30 15:05:16;;;;;;;;;;;;;;;;;;4921360;28;19931;-76
2023/11/30 15:07:41;;;;;;;;;;;;;;;;;;4907715;29;19958;-74
2023/11/30 15:10:07;;;;;;;;;;;;;;;;;;4895430;29;20281;-75
2023/11/30 15:12:32;;;;;;;;;;;;;;;;;;4889236;29;19919;-74
2023/11/30 15:14:57;;;;;;;;;;;;;;;;;;4919600;28;20747;-75
2023/11/30 15:17:23;;;;;;;;;;;;;;;;;;4923493;28;20018;-75
2023/11/30 15:19:50;;;;;;;;;;;;;;;;;;4921716;28;19919;-74
2023/11/30 15:22:16;;;;;;;;;;;;;;;;;;4918889;28;20505;-75
2023/11/30 15:24:41;;;;;;;;;;;;;;;;;;4923216;28;19919;-75
2023/11/30 15:27:07;;;;;;;;;;;;;;;;;;4917316;28;20482;-75
2023/11/30 15:29:32;;;;;;;;;;;;;;;;;;4891907;29;19986;-75
2023/11/30 15:31:57;;;;;;;;;;;;;;;;;;4907534;29;20488;-74
2023/11/30 15:34:23;;;;;;;;;;;;;;;;;;4894486;29;19926;-75
2023/11/30 15:36:48;;;;;;;;;;;;;;;;;;4905089;29;19937;-74
2023/11/30 15:39:17;;;;;;;;;;;;;;;;;;4892627;29;20363;-75
2023/11/30 15:41:43;;;;;;;;;;;;;;;;;;4911115;28;20010;-76
2023/11/30 15:44:08;;;;;;;;;;;;;;;;;;4921356;28;19983;-75
2023/11/30 15:46:34;;;;;;;;;;;;;;;;;;4923450;28;20383;-76
2023/11/30 15:48:59;;;;;;;;;;;;;;;;;;4922800;28;20020;-74
2023/11/30 15:51:24;;;;;;;;;;;;;;;;;;4908131;29;20124;-75
2023/11/30 15:53:51;;;;;;;;;;;;;;;;;;4922012;28;19962;-75
2023/11/30 15:56:16;;;;;;;;;;;;;;;;;;4906976;29;20182;-75
2023/11/30 15:58:41;;;;;;;;;;;;;;;;;;4920677;28;19923;-78
2023/11/30 16:01:07;;;;;;;;;;;;;;;;;;4922842;28;19967;-76
2023/11/30 16:03:32;;;;;;;;;;;;;;;;;;4905252;29;19923;-76
2023/11/30 16:05:59;;;;;;;;;;;;;;;;;;4905792;29;20576;-76
2023/11/30 16:08:24;;;;;;;;;;;;;;;;;;4892286;29;19923;-76
2023/11/30 16:10:50;;;;;;;;;;;;;;;;;;4920324;28;20351;-76
2023/11/30 16:13:15;;;;;;;;;;;;;;;;;;4921818;28;20311;-76
2023/11/30 16:15:43;;;;;;;;;;;;;;;;;;4919977;28;19919;-75
2023/11/30 16:18:08;;;;;;;;;;;;;;;;;;4908106;29;19946;-75
2023/11/30 16:20:33;;;;;;;;;;;;;;;;;;4921139;28;19970;-75
2023/11/30 16:22:58;;;;;;;;;;;;;;;;;;4904866;29;19927;-75
2023/11/30 16:25:24;;;;;;;;;;;;;;;;;;4925090;28;19929;-75
2023/11/30 16:27:49;;;;;;;;;;;;;;;;;;4892400;29;19919;-75
2023/11/30 16:30:14;;;;;;;;;;;;;;;;;;4921577;28;19926;-75
2023/11/30 16:32:40;;;;;;;;;;;;;;;;;;4909255;29;19934;-75
2023/11/30 16:35:05;;;;;;;;;;;;;;;;;;4892488;29;19930;-77
2023/11/30 16:37:30;;;;;;;;;;;;;;;;;;4922113;28;19991;-74
2023/11/30 16:39:56;;;;;;;;;;;;;;;;;;4908637;29;20179;-75
2023/11/30 16:42:21;;;;;;;;;;;;;;;;;;4927104;28;19927;-75
2023/11/30 16:44:46;;;;;;;;;;;;;;;;;;4893547;29;20339;-75
2023/11/30 16:47:12;;;;;;;;;;;;;;;;;;4896468;29;19915;-74
2023/11/30 16:49:37;;;;;;;;;;;;;;;;;;4922205;28;19923;-75
2023/11/30 16:52:03;;;;;;;;;;;;;;;;;;4921707;28;19990;-75
2023/11/30 16:54:29;;;;;;;;;;;;;;;;;;4921256;28;19946;-72
2023/11/30 16:56:54;;;;;;;;;;;;;;;;;;4907222;29;20078;-74
2023/11/30 16:59:19;;;;;;;;;;;;;;;;;;4907550;29;19923;-75
2023/11/30 17:01:45;;;;;;;;;;;;;;;;;;4922837;28;20299;-75
2023/11/30 17:04:10;;;;;;;;;;;;;;;;;;4903055;29;20007;-74
2023/11/30 17:06:35;;;;;;;;;;;;;;;;;;4926161;28;20576;-74
2023/11/30 17:09:01;;;;;;;;;;;;;;;;;;4922888;28;19930;-75
2023/11/30 17:11:26;;;;;;;;;;;;;;;;;;4925710;28;20392;-75
2023/11/30 17:13:51;;;;;;;;;;;;;;;;;;4925540;28;19929;-75